Time;durP1;ratioP1;P1;durP2;ratioP2;P2;SDS_P1;SDS_P2;PMS_P1;PMS_P2;Temp;Humidity;BMP_temperature;BMP_pressure;BME280_temperature;BME280_humidity;BME280_pressure;Samples;Min_cycle;Max_cycle;Signal;HPM_P1;HPM_P2
2023/06/23 00:01:37;;;;;;;7.70;5.80;;;;;;;;;;5009832;28;20161;-71
2023/06/23 00:04:03;;;;;;;8.07;5.95;;;;;;;;;;5008118;28;20117;-70
2023/06/23 00:06:29;;;;;;;6.40;5.25;;;;;;;;;;4989896;28;20046;-70
2023/06/23 00:08:54;;;;;;;6.18;5.25;;;;;;;;;;4990039;28;20140;-70
2023/06/23 00:11:20;;;;;;;7.35;5.30;;;;;;;;;;5013200;28;20056;-70
2023/06/23 00:13:46;;;;;;;8.82;5.57;;;;;;;;;;5013626;28;20026;-70
2023/06/23 00:16:12;;;;;;;8.50;5.43;;;;;;;;;;4995096;28;20101;-70
2023/06/23 00:18:39;;;;;;;8.35;5.90;;;;;;;;;;4993259;28;20169;-70
2023/06/23 00:21:06;;;;;;;7.53;5.07;;;;;;;;;;4994100;28;20034;-70
2023/06/23 00:23:33;;;;;;;8.02;4.95;;;;;;;;;;4993701;28;20044;-70
2023/06/23 00:25:59;;;;;;;6.63;5.20;;;;;;;;;;4993444;28;20484;-70
2023/06/23 00:28:25;;;;;;;9.00;5.38;;;;;;;;;;4993221;28;20049;-71
2023/06/23 00:30:52;;;;;;;7.78;5.68;;;;;;;;;;4993585;28;20026;-71
2023/06/23 00:33:18;;;;;;;8.30;5.50;;;;;;;;;;4993528;28;20467;-70
2023/06/23 00:35:46;;;;;;;5.90;4.68;;;;;;;;;;4993805;28;20023;-70
2023/06/23 00:38:13;;;;;;;11.77;6.00;;;;;;;;;;4992115;28;20129;-70
2023/06/23 00:40:39;;;;;;;10.57;5.95;;;;;;;;;;4992891;28;20026;-70
2023/06/23 00:43:05;;;;;;;11.48;7.10;;;;;;;;;;4993378;28;20034;-70
2023/06/23 00:45:31;;;;;;;15.30;7.10;;;;;;;;;;5002850;28;20036;-70
2023/06/23 00:47:57;;;;;;;10.20;7.03;;;;;;;;;;5011250;28;20148;-70
2023/06/23 00:50:24;;;;;;;11.38;6.72;;;;;;;;;;5001427;28;20026;-70
2023/06/23 00:52:52;;;;;;;11.13;6.90;;;;;;;;;;4993179;28;20113;-70
2023/06/23 00:55:23;;;;;;;10.60;6.80;;;;;;;;;;4993185;28;20473;-70
2023/06/23 00:57:50;;;;;;;16.80;7.20;;;;;;;;;;4993141;28;20080;-70
2023/06/23 01:00:18;;;;;;;12.75;6.75;;;;;;;;;;4991301;28;20113;-70
2023/06/23 01:02:52;;;;;;;13.10;6.82;;;;;;;;;;4991683;28;20041;-70
2023/06/23 01:05:30;;;;;;;10.73;6.53;;;;;;;;;;4992908;28;20026;-70
2023/06/23 01:08:15;;;;;;;12.45;7.75;;;;;;;;;;4992883;28;20049;-71
2023/06/23 01:10:50;;;;;;;17.63;7.88;;;;;;;;;;4992724;28;20038;-70
2023/06/23 01:13:23;;;;;;;10.38;7.05;;;;;;;;;;4992790;28;20508;-70
2023/06/23 01:16:05;;;;;;;9.35;6.53;;;;;;;;;;4993657;28;20046;-70
2023/06/23 01:18:40;;;;;;;8.02;6.60;;;;;;;;;;4993568;28;20471;-70
2023/06/23 01:21:10;;;;;;;11.73;6.70;;;;;;;;;;4992322;28;20109;-70
2023/06/23 01:23:56;;;;;;;13.07;7.47;;;;;;;;;;4993577;28;20030;-70
2023/06/23 01:26:54;;;;;;;9.50;6.78;;;;;;;;;;4993603;28;20524;-70
2023/06/23 01:29:31;;;;;;;7.05;5.63;;;;;;;;;;4991542;28;20046;-71
2023/06/23 01:32:20;;;;;;;10.57;6.40;;;;;;;;;;4990852;28;20507;-70
2023/06/23 01:34:52;;;;;;;9.85;6.32;;;;;;;;;;4992713;28;20058;-70
2023/06/23 01:37:30;;;;;;;11.00;6.18;;;;;;;;;;4991074;28;20507;-70
2023/06/23 01:40:00;;;;;;;10.02;6.65;;;;;;;;;;4990901;28;20058;-70
2023/06/23 01:42:30;;;;;;;6.72;5.50;;;;;;;;;;4992483;28;20037;-70
2023/06/23 01:44:59;;;;;;;10.43;7.03;;;;;;;;;;4991051;28;20034;-70
2023/06/23 01:47:38;;;;;;;10.07;6.57;;;;;;;;;;4990390;28;20031;-70
2023/06/23 01:50:09;;;;;;;13.75;6.38;;;;;;;;;;4990597;28;20473;-70
2023/06/23 01:52:39;;;;;;;9.68;6.72;;;;;;;;;;4992481;28;20596;-70
2023/06/23 01:55:07;;;;;;;8.07;6.45;;;;;;;;;;4992522;28;20073;-70
2023/06/23 01:57:36;;;;;;;8.27;6.30;;;;;;;;;;4990850;28;20439;-70
2023/06/23 02:00:10;;;;;;;9.93;7.15;;;;;;;;;;4990515;28;20811;-70
2023/06/23 02:02:47;;;;;;;14.75;7.78;;;;;;;;;;4992509;28;20038;-70
2023/06/23 02:05:14;;;;;;;16.13;8.38;;;;;;;;;;4990821;28;20046;-71
2023/06/23 02:07:43;;;;;;;9.20;6.35;;;;;;;;;;4991852;28;20105;-70
2023/06/23 02:10:10;;;;;;;9.80;6.97;;;;;;;;;;4983088;28;20040;-71
2023/06/23 02:12:39;;;;;;;12.20;6.72;;;;;;;;;;4990283;28;20484;-70
2023/06/23 02:15:08;;;;;;;10.00;6.85;;;;;;;;;;4990631;28;20038;-70
2023/06/23 02:17:34;;;;;;;12.32;6.78;;;;;;;;;;4990612;28;20686;-70
2023/06/23 02:20:13;;;;;;;14.50;7.22;;;;;;;;;;4989980;28;20436;-70
2023/06/23 02:22:42;;;;;;;9.68;6.78;;;;;;;;;;4991756;28;20092;-70
2023/06/23 02:25:10;;;;;;;8.73;6.55;;;;;;;;;;4990739;28;20089;-70
2023/06/23 02:27:37;;;;;;;9.40;7.10;;;;;;;;;;4990227;28;20396;-71
2023/06/23 02:30:03;;;;;;;8.50;6.45;;;;;;;;;;4988534;28;20630;-70
2023/06/23 02:32:29;;;;;;;14.75;8.77;;;;;;;;;;4991193;28;20061;-70
2023/06/23 02:34:55;;;;;;;14.43;10.07;;;;;;;;;;4990014;28;20425;-70
2023/06/23 02:37:26;;;;;;;18.52;10.55;;;;;;;;;;4989907;28;20042;-70
2023/06/23 02:39:57;;;;;;;15.70;10.45;;;;;;;;;;4989386;28;20038;-70
2023/06/23 02:42:33;;;;;;;15.02;9.98;;;;;;;;;;4973317;28;20524;-70
2023/06/23 02:45:03;;;;;;;12.73;10.02;;;;;;;;;;4990809;28;20042;-70
2023/06/23 02:47:36;;;;;;;11.43;9.23;;;;;;;;;;4990949;28;20319;-70
2023/06/23 02:50:06;;;;;;;15.27;9.55;;;;;;;;;;4989318;28;20038;-71
2023/06/23 02:52:36;;;;;;;13.77;9.93;;;;;;;;;;4986263;28;20535;-69
2023/06/23 02:55:05;;;;;;;15.55;8.85;;;;;;;;;;5004352;28;20035;-71
2023/06/23 02:57:32;;;;;;;13.32;9.05;;;;;;;;;;4989477;28;20042;-71
2023/06/23 03:00:00;;;;;;;17.40;9.23;;;;;;;;;;4989118;28;20069;-71
2023/06/23 03:02:29;;;;;;;13.27;9.00;;;;;;;;;;4989350;28;20034;-71
2023/06/23 03:04:57;;;;;;;12.90;8.50;;;;;;;;;;4989069;28;20018;-70
2023/06/23 03:07:24;;;;;;;12.75;8.18;;;;;;;;;;4990357;28;20045;-70
2023/06/23 03:09:50;;;;;;;19.20;10.30;;;;;;;;;;4992613;28;20029;-70
2023/06/23 03:12:16;;;;;;;23.27;10.48;;;;;;;;;;4989163;28;20113;-70
2023/06/23 03:14:43;;;;;;;19.05;11.05;;;;;;;;;;4990692;28;20105;-70
2023/06/23 03:17:15;;;;;;;26.13;12.77;;;;;;;;;;4989193;28;20038;-70
2023/06/23 03:19:49;;;;;;;27.98;13.07;;;;;;;;;;4990087;28;20045;-69
2023/06/23 03:22:48;;;;;;;20.00;12.15;;;;;;;;;;4982535;28;20053;-70
2023/06/23 03:25:22;;;;;;;17.33;10.73;;;;;;;;;;4980065;28;20146;-71
2023/06/23 03:27:51;;;;;;;18.90;10.20;;;;;;;;;;4990148;28;20030;-71
2023/06/23 03:30:35;;;;;;;16.33;10.65;;;;;;;;;;4981973;28;20030;-70
2023/06/23 03:33:07;;;;;;;19.02;10.73;;;;;;;;;;4988632;28;20026;-70
2023/06/23 03:35:40;;;;;;;16.17;10.48;;;;;;;;;;4988620;28;20089;-71
2023/06/23 03:38:11;;;;;;;15.38;10.90;;;;;;;;;;4989823;28;20038;-70
2023/06/23 03:41:05;;;;;;;20.27;10.70;;;;;;;;;;4988638;28;20030;-70
2023/06/23 03:43:42;;;;;;;13.20;9.82;;;;;;;;;;4984768;28;20122;-70
2023/06/23 03:46:14;;;;;;;14.75;10.05;;;;;;;;;;4992595;28;20043;-71
2023/06/23 03:48:42;;;;;;;14.68;9.95;;;;;;;;;;4993796;28;20053;-70
2023/06/23 03:51:12;;;;;;;15.52;9.65;;;;;;;;;;4993792;28;20425;-72
2023/06/23 03:53:40;;;;;;;21.08;10.85;;;;;;;;;;4994196;28;20034;-71
2023/06/23 03:56:09;;;;;;;18.20;9.80;;;;;;;;;;4993737;28;20401;-71
2023/06/23 03:58:37;;;;;;;19.05;10.57;;;;;;;;;;4989026;28;20034;-71
2023/06/23 04:01:04;;;;;;;13.20;9.23;;;;;;;;;;4989454;28;20023;-71
2023/06/23 04:03:32;;;;;;;13.63;9.18;;;;;;;;;;4988207;28;20034;-71
2023/06/23 04:06:02;;;;;;;15.70;9.32;;;;;;;;;;4990161;28;20081;-71
2023/06/23 04:08:31;;;;;;;15.20;9.20;;;;;;;;;;4993516;28;20034;-71
2023/06/23 04:10:58;;;;;;;14.77;9.57;;;;;;;;;;4994743;28;20137;-70
2023/06/23 04:13:26;;;;;;;15.65;9.27;;;;;;;;;;4995817;28;20037;-70
2023/06/23 04:15:53;;;;;;;16.98;9.50;;;;;;;;;;4995637;28;20030;-70
2023/06/23 04:18:21;;;;;;;13.20;8.60;;;;;;;;;;4987540;28;20080;-71
2023/06/23 04:20:49;;;;;;;14.43;9.30;;;;;;;;;;4992808;28;20049;-70
2023/06/23 04:23:15;;;;;;;16.65;10.20;;;;;;;;;;4994868;28;20037;-70
2023/06/23 04:25:44;;;;;;;22.63;10.10;;;;;;;;;;4995632;28;20392;-71
2023/06/23 04:28:14;;;;;;;16.00;10.60;;;;;;;;;;4995579;28;20101;-71
2023/06/23 04:30:41;;;;;;;13.65;9.55;;;;;;;;;;4994341;28;20392;-70
2023/06/23 04:33:06;;;;;;;14.50;8.63;;;;;;;;;;4996135;28;20127;-70
2023/06/23 04:35:32;;;;;;;13.70;8.73;;;;;;;;;;4995628;28;20102;-70
2023/06/23 04:38:03;;;;;;;16.50;9.38;;;;;;;;;;4995612;28;20121;-71
2023/06/23 04:40:37;;;;;;;17.20;8.82;;;;;;;;;;4995050;28;20034;-71
2023/06/23 04:43:09;;;;;;;19.10;9.10;;;;;;;;;;4994983;28;20112;-71
2023/06/23 04:45:38;;;;;;;14.98;9.25;;;;;;;;;;4994864;28;20065;-71
2023/06/23 04:48:07;;;;;;;14.07;9.75;;;;;;;;;;4994867;28;20038;-71
2023/06/23 04:50:35;;;;;;;13.88;8.07;;;;;;;;;;4994954;28;20018;-71
2023/06/23 04:53:08;;;;;;;13.88;9.18;;;;;;;;;;4993570;28;20501;-70
2023/06/23 04:55:35;;;;;;;14.10;8.82;;;;;;;;;;4994469;28;20473;-70
2023/06/23 04:58:04;;;;;;;20.73;8.38;;;;;;;;;;4994332;28;20038;-72
2023/06/23 05:00:32;;;;;;;17.42;9.38;;;;;;;;;;4994552;28;20176;-70
2023/06/23 05:02:59;;;;;;;17.50;8.93;;;;;;;;;;4994614;28;20105;-71
2023/06/23 05:05:28;;;;;;;10.98;7.95;;;;;;;;;;4995125;28;20403;-71
2023/06/23 05:07:55;;;;;;;10.30;7.68;;;;;;;;;;4994597;28;20026;-71
2023/06/23 05:10:24;;;;;;;16.73;8.75;;;;;;;;;;4984843;28;20110;-70
2023/06/23 05:12:53;;;;;;;16.70;9.48;;;;;;;;;;4993265;28;20022;-71
2023/06/23 05:15:20;;;;;;;17.10;9.93;;;;;;;;;;4993957;28;20042;-70
2023/06/23 05:17:53;;;;;;;9.82;8.18;;;;;;;;;;4994521;28;20022;-70
2023/06/23 05:20:23;;;;;;;9.52;8.50;;;;;;;;;;4977284;28;20256;-71
2023/06/23 05:22:50;;;;;;;16.33;9.38;;;;;;;;;;4992928;28;20061;-70
2023/06/23 05:25:19;;;;;;;21.35;7.68;;;;;;;;;;4994028;28;20365;-71
2023/06/23 05:27:49;;;;;;;10.40;7.35;;;;;;;;;;4994146;28;20536;-72
2023/06/23 05:30:18;;;;;;;14.73;7.97;;;;;;;;;;4994241;28;20045;-70
2023/06/23 05:32:48;;;;;;;11.35;7.40;;;;;;;;;;4994421;28;20088;-71
2023/06/23 05:35:15;;;;;;;10.10;6.82;;;;;;;;;;4992853;28;20034;-70
2023/06/23 05:37:44;;;;;;;18.95;8.07;;;;;;;;;;4994234;28;20070;-71
2023/06/23 05:40:14;;;;;;;13.15;7.70;;;;;;;;;;4994363;28;20096;-71
2023/06/23 05:42:40;;;;;;;16.13;8.70;;;;;;;;;;4992505;28;20072;-72
2023/06/23 05:45:07;;;;;;;17.23;7.50;;;;;;;;;;4992188;28;20027;-72
2023/06/23 05:47:43;;;;;;;13.57;8.45;;;;;;;;;;4994176;28;20053;-69
2023/06/23 05:50:31;;;;;;;17.27;8.63;;;;;;;;;;4990367;28;20401;-70
2023/06/23 05:53:02;;;;;;;17.83;8.77;;;;;;;;;;4993622;28;20489;-73
2023/06/23 05:55:32;;;;;;;17.08;8.15;;;;;;;;;;4992447;28;20054;-71
2023/06/23 05:58:04;;;;;;;18.55;9.32;;;;;;;;;;4993640;28;20057;-70
2023/06/23 06:00:36;;;;;;;13.15;8.30;;;;;;;;;;4986284;28;20097;-70
2023/06/23 06:03:06;;;;;;;12.70;7.38;;;;;;;;;;4993674;28;20121;-71
2023/06/23 06:05:34;;;;;;;18.35;7.57;;;;;;;;;;4993441;28;20097;-71
2023/06/23 06:08:01;;;;;;;10.13;6.75;;;;;;;;;;4992874;28;20083;-71
2023/06/23 06:10:28;;;;;;;14.15;7.13;;;;;;;;;;4993326;28;20488;-73
2023/06/23 06:12:55;;;;;;;10.55;6.90;;;;;;;;;;4992426;28;20030;-71
2023/06/23 06:15:22;;;;;;;8.60;6.25;;;;;;;;;;4976013;28;20121;-71
2023/06/23 06:17:49;;;;;;;9.95;6.32;;;;;;;;;;4993346;28;20108;-70
2023/06/23 06:20:17;;;;;;;7.82;6.53;;;;;;;;;;4993341;28;20397;-71
2023/06/23 06:22:45;;;;;;;11.48;7.10;;;;;;;;;;4993172;28;20042;-71
2023/06/23 06:25:12;;;;;;;13.32;7.15;;;;;;;;;;4993030;28;20035;-71
2023/06/23 06:27:41;;;;;;;9.98;6.32;;;;;;;;;;4996811;28;20068;-70
2023/06/23 06:30:08;;;;;;;13.85;6.88;;;;;;;;;;5002778;28;20050;-71
2023/06/23 06:32:37;;;;;;;12.10;7.45;;;;;;;;;;5000724;28;20145;-70
2023/06/23 06:35:05;;;;;;;8.95;7.18;;;;;;;;;;4992841;28;20368;-70
2023/06/23 06:37:37;;;;;;;12.90;6.10;;;;;;;;;;4992889;28;20045;-71
2023/06/23 06:40:09;;;;;;;10.88;6.45;;;;;;;;;;4992960;28;20464;-72
2023/06/23 06:42:36;;;;;;;9.75;6.55;;;;;;;;;;4993124;28;20058;-70
2023/06/23 06:45:03;;;;;;;12.55;6.78;;;;;;;;;;4992888;28;20026;-70
2023/06/23 06:47:30;;;;;;;8.90;6.38;;;;;;;;;;4992862;28;20694;-71
2023/06/23 06:50:01;;;;;;;11.73;7.15;;;;;;;;;;4992810;28;20030;-70
2023/06/23 06:52:29;;;;;;;10.35;6.63;;;;;;;;;;4991353;28;20030;-70
2023/06/23 06:54:54;;;;;;;12.25;7.18;;;;;;;;;;4992824;28;20029;-71
2023/06/23 06:57:21;;;;;;;9.98;6.50;;;;;;;;;;4992638;28;20118;-71
2023/06/23 06:59:47;;;;;;;7.82;5.95;;;;;;;;;;4992913;28;20038;-71
2023/06/23 07:02:13;;;;;;;7.18;6.13;;;;;;;;;;4992380;28;20034;-71
2023/06/23 07:04:39;;;;;;;8.02;5.97;;;;;;;;;;4992156;28;20041;-71
2023/06/23 07:07:05;;;;;;;8.43;5.72;;;;;;;;;;4992554;28;20042;-71
2023/06/23 07:09:31;;;;;;;7.88;5.90;;;;;;;;;;4992332;28;20025;-72
2023/06/23 07:12:00;;;;;;;10.05;5.97;;;;;;;;;;4992610;28;20046;-71
2023/06/23 07:14:27;;;;;;;10.23;6.07;;;;;;;;;;4991219;28;20114;-73
2023/06/23 07:16:54;;;;;;;11.82;6.68;;;;;;;;;;4992630;28;20050;-74
2023/06/23 07:19:20;;;;;;;11.35;6.63;;;;;;;;;;4991804;28;20057;-75
2023/06/23 07:21:46;;;;;;;10.35;6.32;;;;;;;;;;4991990;28;20034;-73
2023/06/23 07:24:12;;;;;;;9.07;5.97;;;;;;;;;;4970560;28;20042;-72
2023/06/23 07:26:40;;;;;;;11.85;6.18;;;;;;;;;;4970271;28;20038;-73
2023/06/23 07:29:06;;;;;;;9.48;6.57;;;;;;;;;;4971639;28;20030;-72
2023/06/23 07:31:33;;;;;;;11.57;6.25;;;;;;;;;;4971638;28;20528;-74
2023/06/23 07:34:00;;;;;;;8.40;6.43;;;;;;;;;;4971480;28;20097;-72
2023/06/23 07:36:26;;;;;;;8.85;6.35;;;;;;;;;;4972785;28;20544;-72
2023/06/23 07:38:51;;;;;;;8.57;6.68;;;;;;;;;;4972754;28;20034;-73
2023/06/23 07:41:19;;;;;;;9.38;5.97;;;;;;;;;;4972350;28;20035;-72
2023/06/23 07:43:45;;;;;;;9.18;6.18;;;;;;;;;;4972466;28;20027;-73
2023/06/23 07:46:10;;;;;;;8.35;5.82;;;;;;;;;;4971340;28;20097;-73
2023/06/23 07:48:36;;;;;;;8.15;5.68;;;;;;;;;;4972238;28;20059;-72
2023/06/23 07:51:04;;;;;;;8.75;5.63;;;;;;;;;;4972230;28;20043;-71
2023/06/23 07:53:29;;;;;;;11.00;6.32;;;;;;;;;;4972687;28;20031;-72
2023/06/23 07:55:55;;;;;;;11.40;6.18;;;;;;;;;;4972630;28;20444;-71
2023/06/23 07:58:21;;;;;;;8.48;5.85;;;;;;;;;;4970989;28;20035;-73
2023/06/23 08:00:47;;;;;;;8.50;5.38;;;;;;;;;;4972505;28;20051;-72
2023/06/23 08:03:13;;;;;;;8.13;5.88;;;;;;;;;;4972431;28;20042;-72
2023/06/23 08:05:41;;;;;;;8.05;5.45;;;;;;;;;;4972587;28;20031;-73
2023/06/23 08:08:07;;;;;;;7.80;5.68;;;;;;;;;;4972631;28;20037;-72
2023/06/23 08:10:33;;;;;;;9.43;5.38;;;;;;;;;;4972587;28;20031;-72
2023/06/23 08:12:59;;;;;;;9.05;6.03;;;;;;;;;;4973359;28;20027;-73
2023/06/23 08:15:25;;;;;;;8.85;5.35;;;;;;;;;;4972339;28;20030;-74
2023/06/23 08:17:51;;;;;;;9.80;5.72;;;;;;;;;;4972718;28;20029;-72
2023/06/23 08:20:17;;;;;;;9.52;5.70;;;;;;;;;;4974103;28;20050;-73
2023/06/23 08:22:43;;;;;;;6.15;5.47;;;;;;;;;;4973257;28;20054;-74
2023/06/23 08:25:09;;;;;;;11.50;5.72;;;;;;;;;;4971678;28;20038;-73
2023/06/23 08:27:35;;;;;;;9.75;5.32;;;;;;;;;;4973333;28;20035;-72
2023/06/23 08:30:01;;;;;;;10.95;5.38;;;;;;;;;;4971202;28;20035;-73
2023/06/23 08:32:26;;;;;;;9.00;5.40;;;;;;;;;;4975856;28;20022;-73
2023/06/23 08:34:52;;;;;;;7.47;5.75;;;;;;;;;;4975910;28;20536;-71
2023/06/23 08:37:18;;;;;;;6.70;5.40;;;;;;;;;;4976290;28;20023;-72
2023/06/23 08:39:44;;;;;;;7.05;5.47;;;;;;;;;;4975985;28;20045;-72
2023/06/23 08:42:12;;;;;;;7.13;5.13;;;;;;;;;;4975793;28;20038;-74
2023/06/23 08:44:43;;;;;;;8.00;4.88;;;;;;;;;;4974869;28;20049;-72
2023/06/23 08:47:15;;;;;;;10.38;5.30;;;;;;;;;;4974943;28;20030;-72
2023/06/23 08:49:42;;;;;;;13.40;5.90;;;;;;;;;;4974783;28;20485;-72
2023/06/23 08:52:09;;;;;;;7.32;4.88;;;;;;;;;;4976659;28;20041;-75
2023/06/23 08:54:36;;;;;;;8.02;5.45;;;;;;;;;;4976311;28;20074;-72
2023/06/23 08:57:03;;;;;;;6.47;5.47;;;;;;;;;;4976375;28;20070;-72
2023/06/23 08:59:30;;;;;;;7.90;4.63;;;;;;;;;;4974904;28;20493;-72
2023/06/23 09:01:55;;;;;;;8.02;5.35;;;;;;;;;;4975542;28;20077;-72
2023/06/23 09:04:22;;;;;;;7.32;4.78;;;;;;;;;;4976212;28;20074;-72
2023/06/23 09:06:48;;;;;;;8.18;5.88;;;;;;;;;;4976807;28;20473;-73
2023/06/23 09:09:14;;;;;;;6.93;4.97;;;;;;;;;;4975657;28;20039;-72
2023/06/23 09:11:43;;;;;;;5.70;4.88;;;;;;;;;;4975521;28;20089;-72
2023/06/23 09:14:10;;;;;;;9.23;5.50;;;;;;;;;;4974992;28;20034;-72
2023/06/23 09:16:41;;;;;;;6.13;5.10;;;;;;;;;;4973329;28;20042;-72
2023/06/23 09:19:08;;;;;;;6.28;4.78;;;;;;;;;;4973739;28;20042;-73
2023/06/23 09:21:36;;;;;;;8.10;5.00;;;;;;;;;;4975802;28;20508;-73
2023/06/23 09:24:07;;;;;;;7.50;6.70;;;;;;;;;;4957860;28;20042;-72
2023/06/23 09:26:45;;;;;;;7.28;5.20;;;;;;;;;;4973453;28;20034;-72
2023/06/23 09:29:16;;;;;;;6.70;4.97;;;;;;;;;;4974500;28;20373;-73
2023/06/23 09:31:43;;;;;;;8.80;5.40;;;;;;;;;;4973195;28;20125;-71
2023/06/23 09:34:20;;;;;;;7.25;5.60;;;;;;;;;;4975067;28;20126;-73
2023/06/23 09:36:46;;;;;;;7.25;4.80;;;;;;;;;;4957968;28;20485;-73
2023/06/23 09:39:14;;;;;;;6.95;5.07;;;;;;;;;;4973342;28;20082;-72
2023/06/23 09:41:55;;;;;;;8.07;5.00;;;;;;;;;;4973503;28;20109;-72
2023/06/23 09:44:21;;;;;;;11.93;5.60;;;;;;;;;;4974785;28;20042;-73
2023/06/23 09:46:47;;;;;;;7.00;4.97;;;;;;;;;;4974492;28;20022;-72
2023/06/23 09:49:13;;;;;;;8.48;4.90;;;;;;;;;;4975377;28;20039;-71
2023/06/23 09:51:45;;;;;;;8.63;5.13;;;;;;;;;;4974526;28;20478;-73
2023/06/23 09:54:11;;;;;;;8.93;4.80;;;;;;;;;;4974896;28;20039;-72
2023/06/23 09:56:37;;;;;;;6.18;5.20;;;;;;;;;;4975013;28;20058;-72
2023/06/23 09:59:03;;;;;;;8.02;5.40;;;;;;;;;;4974413;28;20046;-73
2023/06/23 10:01:35;;;;;;;6.22;5.10;;;;;;;;;;4974956;28;20026;-74
2023/06/23 10:04:03;;;;;;;8.85;5.07;;;;;;;;;;4974199;28;20121;-73
2023/06/23 10:06:36;;;;;;;7.90;5.10;;;;;;;;;;4974230;28;20034;-73
2023/06/23 10:09:07;;;;;;;7.97;5.32;;;;;;;;;;4974314;28;20042;-73
2023/06/23 10:11:37;;;;;;;7.00;4.93;;;;;;;;;;4972875;28;20221;-74
2023/06/23 10:14:08;;;;;;;5.30;4.80;;;;;;;;;;4974034;28;20062;-72
2023/06/23 10:16:35;;;;;;;5.55;5.03;;;;;;;;;;4974191;28;20117;-73
2023/06/23 10:19:02;;;;;;;6.55;5.65;;;;;;;;;;4974180;28;20030;-74
2023/06/23 10:21:30;;;;;;;9.07;5.55;;;;;;;;;;4956903;28;20500;-75
2023/06/23 10:23:59;;;;;;;6.85;4.82;;;;;;;;;;4973222;28;20038;-73
2023/06/23 10:26:25;;;;;;;6.05;5.28;;;;;;;;;;4974075;28;20189;-73
2023/06/23 10:28:53;;;;;;;8.20;5.40;;;;;;;;;;4973740;28;20029;-72
2023/06/23 10:31:19;;;;;;;7.57;4.68;;;;;;;;;;5009906;28;20034;-72
2023/06/23 10:33:47;;;;;;;8.55;5.20;;;;;;;;;;5012562;28;20499;-74
2023/06/23 10:36:20;;;;;;;5.60;5.00;;;;;;;;;;5012897;28;20056;-73
2023/06/23 10:38:50;;;;;;;10.95;5.45;;;;;;;;;;4996057;28;20403;-74
2023/06/23 10:41:18;;;;;;;6.72;4.78;;;;;;;;;;5012700;28;20034;-72
2023/06/23 10:43:47;;;;;;;7.15;5.45;;;;;;;;;;5012534;28;20048;-73
2023/06/23 10:46:15;;;;;;;8.95;5.15;;;;;;;;;;5011617;28;20041;-73
2023/06/23 10:48:43;;;;;;;8.85;6.00;;;;;;;;;;5012445;28;20068;-74
2023/06/23 10:51:10;;;;;;;8.50;5.18;;;;;;;;;;4996948;28;20022;-76
2023/06/23 10:53:45;;;;;;;5.85;5.10;;;;;;;;;;4998488;28;20038;-75
2023/06/23 10:56:30;;;;;;;7.10;4.95;;;;;;;;;;4995758;28;20038;-74
2023/06/23 10:58:57;;;;;;;8.77;5.22;;;;;;;;;;4985506;28;20042;-74
2023/06/23 11:01:23;;;;;;;7.00;5.53;;;;;;;;;;4992561;28;20412;-75
2023/06/23 11:03:56;;;;;;;6.13;4.95;;;;;;;;;;4988558;28;20493;-74
2023/06/23 11:06:28;;;;;;;5.75;5.03;;;;;;;;;;4992585;28;20042;-74
2023/06/23 11:08:55;;;;;;;6.85;5.00;;;;;;;;;;4985040;28;20041;-76
2023/06/23 11:11:39;;;;;;;6.45;5.18;;;;;;;;;;4991168;28;20080;-74
2023/06/23 11:14:14;;;;;;;6.18;5.15;;;;;;;;;;4972307;28;20034;-75
2023/06/23 11:16:40;;;;;;;5.97;5.05;;;;;;;;;;4972284;28;20043;-75
2023/06/23 11:19:06;;;;;;;7.43;5.40;;;;;;;;;;4973845;28;20076;-75
2023/06/23 11:21:34;;;;;;;9.38;5.15;;;;;;;;;;5004895;28;20042;-76
2023/06/23 11:24:29;;;;;;;8.35;5.53;;;;;;;;;;4973707;28;20100;-73
2023/06/23 11:27:02;;;;;;;7.68;5.20;;;;;;;;;;4967871;28;20042;-72
2023/06/23 11:29:30;;;;;;;14.98;5.82;;;;;;;;;;4984845;28;20038;-73
2023/06/23 11:32:17;;;;;;;9.48;5.13;;;;;;;;;;4992484;28;20034;-77
2023/06/23 11:34:57;;;;;;;6.35;5.35;;;;;;;;;;4992402;28;20037;-75
2023/06/23 11:37:31;;;;;;;7.95;5.43;;;;;;;;;;4991282;28;20051;-75
2023/06/23 11:39:57;;;;;;;11.13;5.93;;;;;;;;;;4984797;28;20057;-73
2023/06/23 11:42:24;;;;;;;9.23;5.28;;;;;;;;;;4990863;28;20069;-75
2023/06/23 11:44:53;;;;;;;9.43;5.65;;;;;;;;;;4991014;28;20185;-75
2023/06/23 11:47:27;;;;;;;6.63;5.10;;;;;;;;;;4991091;28;20527;-75
2023/06/23 11:49:54;;;;;;;6.60;5.13;;;;;;;;;;4992128;28;20072;-76
2023/06/23 11:52:20;;;;;;;11.88;5.55;;;;;;;;;;4992226;28;20113;-74
2023/06/23 11:54:48;;;;;;;8.25;5.13;;;;;;;;;;4992240;28;20034;-76
2023/06/23 11:57:19;;;;;;;6.05;4.82;;;;;;;;;;4992086;28;20046;-74
2023/06/23 11:59:46;;;;;;;5.72;5.13;;;;;;;;;;4992214;28;20092;-74
2023/06/23 12:02:11;;;;;;;9.73;5.32;;;;;;;;;;4992408;28;20030;-73
2023/06/23 12:04:39;;;;;;;6.85;5.05;;;;;;;;;;4992179;28;20046;-75
2023/06/23 12:07:05;;;;;;;9.95;5.65;;;;;;;;;;4995808;28;20041;-74
2023/06/23 12:09:31;;;;;;;8.45;5.47;;;;;;;;;;4996796;28;20105;-75
2023/06/23 12:11:58;;;;;;;12.15;5.32;;;;;;;;;;4996093;28;20157;-75
2023/06/23 12:14:33;;;;;;;6.03;5.43;;;;;;;;;;4994399;28;20042;-76
2023/06/23 12:17:09;;;;;;;7.40;4.93;;;;;;;;;;4987275;28;20045;-76
2023/06/23 12:19:36;;;;;;;9.35;5.43;;;;;;;;;;4995249;28;20046;-76
2023/06/23 12:22:03;;;;;;;11.63;5.97;;;;;;;;;;4996522;28;20029;-73
2023/06/23 12:24:30;;;;;;;9.73;5.47;;;;;;;;;;4995651;28;20046;-74
2023/06/23 12:26:58;;;;;;;6.53;5.22;;;;;;;;;;4992365;28;20094;-74
2023/06/23 12:29:24;;;;;;;9.27;5.47;;;;;;;;;;4996107;28;20485;-75
2023/06/23 12:31:57;;;;;;;6.97;5.20;;;;;;;;;;4995980;28;20034;-76
2023/06/23 12:34:50;;;;;;;6.60;5.22;;;;;;;;;;4995536;28;20053;-76
2023/06/23 12:37:18;;;;;;;;;;;;;;;;;;4993373;28;20069;-73
2023/06/23 12:39:54;;;;;;;6.10;5.53;;;;;;;;;;4994999;28;19909;-75
2023/06/23 12:42:21;;;;;;;7.80;5.15;;;;;;;;;;4995275;28;20038;-74
2023/06/23 12:44:48;;;;;;;6.72;5.25;;;;;;;;;;4996908;28;20073;-73
2023/06/23 12:47:14;;;;;;;7.47;5.07;;;;;;;;;;5014416;28;20346;-74
2023/06/23 12:49:40;;;;;;;6.38;5.65;;;;;;;;;;5015098;28;20033;-74
2023/06/23 12:52:10;;;;;;;7.88;5.82;;;;;;;;;;5013413;28;20215;-73
2023/06/23 12:54:36;;;;;;;8.55;5.18;;;;;;;;;;4994916;28;20031;-73
2023/06/23 12:57:03;;;;;;;7.22;5.45;;;;;;;;;;4993146;28;20507;-75
2023/06/23 12:59:29;;;;;;;8.40;6.07;;;;;;;;;;4993951;28;20112;-73
2023/06/23 13:01:55;;;;;;;7.43;5.40;;;;;;;;;;4994663;28;20513;-73
2023/06/23 13:04:22;;;;;;;7.80;5.53;;;;;;;;;;4994936;28;20415;-73
2023/06/23 13:06:49;;;;;;;8.55;5.20;;;;;;;;;;4993438;28;20477;-73
2023/06/23 13:09:15;;;;;;;6.20;5.10;;;;;;;;;;4977264;28;20034;-73
2023/06/23 13:11:42;;;;;;;6.40;5.03;;;;;;;;;;4996298;28;20026;-72
2023/06/23 13:14:08;;;;;;;8.93;5.60;;;;;;;;;;5014533;28;20476;-74
2023/06/23 13:16:34;;;;;;;6.53;5.18;;;;;;;;;;5005044;28;20431;-71
2023/06/23 13:19:01;;;;;;;10.07;5.50;;;;;;;;;;4994487;28;20045;-73
2023/06/23 13:21:28;;;;;;;8.45;5.22;;;;;;;;;;4993866;28;20088;-74
2023/06/23 13:23:54;;;;;;;7.57;5.57;;;;;;;;;;4994077;28;20068;-74
2023/06/23 13:26:20;;;;;;;7.93;5.78;;;;;;;;;;5008441;28;20525;-74
2023/06/23 13:28:46;;;;;;;7.78;5.28;;;;;;;;;;5012229;28;20037;-74
2023/06/23 13:31:13;;;;;;;6.82;5.53;;;;;;;;;;5014167;28;20036;-72
2023/06/23 13:33:39;;;;;;;7.30;5.68;;;;;;;;;;5013530;28;20463;-73
2023/06/23 13:36:05;;;;;;;7.03;4.72;;;;;;;;;;5013923;28;20084;-73
2023/06/23 13:38:31;;;;;;;7.57;5.22;;;;;;;;;;5013713;28;20057;-74
2023/06/23 13:40:57;;;;;;;6.53;5.50;;;;;;;;;;5013549;28;20069;-73
2023/06/23 13:43:23;;;;;;;7.30;5.30;;;;;;;;;;5013243;28;20045;-73
2023/06/23 13:45:49;;;;;;;6.03;4.75;;;;;;;;;;5013388;28;20032;-73
2023/06/23 13:48:18;;;;;;;8.40;5.53;;;;;;;;;;5013344;28;20041;-74
2023/06/23 13:50:44;;;;;;;7.28;5.25;;;;;;;;;;5013520;28;20030;-71
2023/06/23 13:53:09;;;;;;;6.53;5.68;;;;;;;;;;5013605;28;20041;-73
2023/06/23 13:55:35;;;;;;;6.53;5.00;;;;;;;;;;5012303;28;20106;-74
2023/06/23 13:58:03;;;;;;;8.38;5.20;;;;;;;;;;5013956;28;20029;-74
2023/06/23 14:00:31;;;;;;;9.63;5.30;;;;;;;;;;5012941;28;20136;-73
2023/06/23 14:02:56;;;;;;;5.68;4.97;;;;;;;;;;5013791;28;20492;-73
2023/06/23 14:05:22;;;;;;;6.38;5.40;;;;;;;;;;5011735;28;20038;-72
2023/06/23 14:07:48;;;;;;;8.05;5.30;;;;;;;;;;5007784;28;20054;-73
2023/06/23 14:10:14;;;;;;;8.75;5.70;;;;;;;;;;4992622;28;20026;-74
2023/06/23 14:12:40;;;;;;;7.13;4.95;;;;;;;;;;4991351;28;20042;-75
2023/06/23 14:15:06;;;;;;;7.25;5.20;;;;;;;;;;4992232;28;20073;-75
2023/06/23 14:17:32;;;;;;;9.02;5.43;;;;;;;;;;4993326;28;20041;-71
2023/06/23 14:19:58;;;;;;;7.18;5.40;;;;;;;;;;4992713;28;20030;-74
2023/06/23 14:22:27;;;;;;;9.77;5.63;;;;;;;;;;4993873;28;20045;-72
2023/06/23 14:24:53;;;;;;;8.00;5.57;;;;;;;;;;4976236;28;20104;-71
2023/06/23 14:27:20;;;;;;;7.22;5.32;;;;;;;;;;4992182;28;20022;-73
2023/06/23 14:29:46;;;;;;;7.13;5.75;;;;;;;;;;4993004;28;20041;-72
2023/06/23 14:32:13;;;;;;;6.78;5.18;;;;;;;;;;4993278;28;20026;-72
2023/06/23 14:34:39;;;;;;;6.00;5.20;;;;;;;;;;4993423;28;20034;-72
2023/06/23 14:37:05;;;;;;;13.10;5.78;;;;;;;;;;4993395;28;20022;-73
2023/06/23 14:39:32;;;;;;;6.10;5.10;;;;;;;;;;4993166;28;20109;-73
2023/06/23 14:41:57;;;;;;;6.15;5.47;;;;;;;;;;4990985;28;20095;-72
2023/06/23 14:44:23;;;;;;;6.95;5.50;;;;;;;;;;4992059;28;20046;-73
2023/06/23 14:46:50;;;;;;;6.30;5.50;;;;;;;;;;4993192;28;20388;-73